Etusivu
METAR-TAF:

METAR-TAF

Lentoasemat :

John A. Osbornen lentoasema

Montserrat, Montserrat

Leveyspiiri: 16-47-29N, Pituuspiiri: 062-11-36W, korkeus merenpinnasta: 168 m

Tämänhetkinen sää

Tämä raportti tehtiin 11 tuntia ja 34 minuuttia sitten, kello 22.00 UTC
Tuuli 13 kn idästä, vaihdellen idän/koillisen ja idän/kaakon välillä
Lämpötila 28°C
Kosteus 79%
Ilmanpaine 1014 hPa
Näkyvyys 10 km tai enemmän
Hajanaisia pilviä 1900 ft:n korkeudessa

METAR: TRPG 202200Z 10013KT 060V120 9999 SCT019 28/24 Q1014

Aika: 05:34 (09:34 UTC)

Sääennuste

Tämä raportti tehtiin 16 tuntia ja 34 minuuttia sitten, kello 17.00 UTC
Ennuste voimassa 20. päivästä klo 18 UTC - 21. päivään klo 18 UTC
Tuuli 14 kn idästä
Näkyvyys 10 km tai enemmän
Hajanaisia pilviä 2200 ft:n korkeudessa

TAF: TRPG 201700Z 2018/2118 10014KT 9999 SCT022

Säähavainnot ja -ennusteet yli 4000 lentoasemalta (METAR- ja TAF-raportit).

Käytössä olevat sääasemat on merkitty karttaan keltaisilla ja punaisilla pisteillä.

Aseta hiiri pisteen päälle nähdäksesi sääaseman nimen.

Klikkaa sitten nähdäksesi säähavainnot ja -ennusteet.

Kartan vaihtaminen: klikkaa mustalla rastilla varustettuja vihreitä pisteitä, niin voit zoomata sisään; viivalla varustettua vihreää pistettä, niin voit zoomata ulos tai vihreitä nuolia, niin pääset viereisille kartoille.


METAR-TAF: